sensor_id;sensor_type;location;lat;lon;timestamp;P1;durP1;ratioP1;P2;durP2;ratioP2
55090;SDS011;40985;53.180;5.800;2023-02-12T00:01:37;62.85;;;13.65;;
55090;SDS011;40985;53.180;5.800;2023-02-12T00:04:03;99.97;;;17.20;;
55090;SDS011;40985;53.180;5.800;2023-02-12T00:06:29;174.07;;;20.40;;
55090;SDS011;40985;53.180;5.800;2023-02-12T00:08:55;102.55;;;17.55;;
55090;SDS011;40985;53.180;5.800;2023-02-12T00:11:23;71.38;;;17.17;;
55090;SDS011;40985;53.180;5.800;2023-02-12T00:13:50;135.05;;;24.38;;
55090;SDS011;40985;53.180;5.800;2023-02-12T00:16:18;111.85;;;19.42;;
55090;SDS011;40985;53.180;5.800;2023-02-12T00:18:46;174.00;;;20.63;;
55090;SDS011;40985;53.180;5.800;2023-02-12T00:21:15;128.43;;;17.17;;
55090;SDS011;40985;53.180;5.800;2023-02-12T00:23:41;77.22;;;13.23;;
55090;SDS011;40985;53.180;5.800;2023-02-12T00:26:08;116.95;;;15.27;;
55090;SDS011;40985;53.180;5.800;2023-02-12T00:28:39;85.63;;;11.15;;
55090;SDS011;40985;53.180;5.800;2023-02-12T00:31:08;85.28;;;9.63;;
55090;SDS011;40985;53.180;5.800;2023-02-12T00:33:36;98.82;;;11.80;;
55090;SDS011;40985;53.180;5.800;2023-02-12T00:36:02;108.88;;;13.23;;
55090;SDS011;40985;53.180;5.800;2023-02-12T00:38:29;111.25;;;13.68;;
55090;SDS011;40985;53.180;5.800;2023-02-12T00:40:54;112.75;;;12.95;;
55090;SDS011;40985;53.180;5.800;2023-02-12T00:43:20;76.85;;;12.20;;
55090;SDS011;40985;53.180;5.800;2023-02-12T00:45:46;99.15;;;11.90;;
55090;SDS011;40985;53.180;5.800;2023-02-12T00:48:12;84.80;;;12.32;;
55090;SDS011;40985;53.180;5.800;2023-02-12T00:50:38;101.82;;;13.18;;
55090;SDS011;40985;53.180;5.800;2023-02-12T00:53:05;96.28;;;12.95;;
55090;SDS011;40985;53.180;5.800;2023-02-12T00:55:32;109.93;;;12.93;;
55090;SDS011;40985;53.180;5.800;2023-02-12T00:57:58;73.28;;;9.38;;
55090;SDS011;40985;53.180;5.800;2023-02-12T01:00:24;92.70;;;12.85;;
55090;SDS011;40985;53.180;5.800;2023-02-12T01:02:50;84.25;;;10.93;;
55090;SDS011;40985;53.180;5.800;2023-02-12T01:05:15;128.50;;;14.27;;
55090;SDS011;40985;53.180;5.800;2023-02-12T01:07:41;98.07;;;12.43;;
55090;SDS011;40985;53.180;5.800;2023-02-12T01:10:07;105.13;;;13.35;;
55090;SDS011;40985;53.180;5.800;2023-02-12T01:12:33;116.13;;;13.00;;
55090;SDS011;40985;53.180;5.800;2023-02-12T01:14:59;75.57;;;10.25;;
55090;SDS011;40985;53.180;5.800;2023-02-12T01:17:25;98.97;;;11.25;;
55090;SDS011;40985;53.180;5.800;2023-02-12T01:19:55;84.50;;;11.05;;
55090;SDS011;40985;53.180;5.800;2023-02-12T01:22:22;81.13;;;9.95;;
55090;SDS011;40985;53.180;5.800;2023-02-12T01:24:48;68.68;;;9.43;;
55090;SDS011;40985;53.180;5.800;2023-02-12T01:27:14;67.60;;;11.18;;
55090;SDS011;40985;53.180;5.800;2023-02-12T01:29:39;83.85;;;11.68;;
55090;SDS011;40985;53.180;5.800;2023-02-12T01:32:09;51.95;;;10.77;;
55090;SDS011;40985;53.180;5.800;2023-02-12T01:34:35;79.22;;;11.80;;
55090;SDS011;40985;53.180;5.800;2023-02-12T01:37:01;61.65;;;11.48;;
55090;SDS011;40985;53.180;5.800;2023-02-12T01:39:27;62.70;;;10.85;;
55090;SDS011;40985;53.180;5.800;2023-02-12T01:41:53;111.82;;;13.55;;
55090;SDS011;40985;53.180;5.800;2023-02-12T01:44:22;123.55;;;15.02;;
55090;SDS011;40985;53.180;5.800;2023-02-12T01:46:57;68.45;;;9.95;;
55090;SDS011;40985;53.180;5.800;2023-02-12T01:52:05;69.90;;;11.13;;
55090;SDS011;40985;53.180;5.800;2023-02-12T01:54:37;87.22;;;11.10;;
55090;SDS011;40985;53.180;5.800;2023-02-12T01:57:04;80.53;;;12.07;;
55090;SDS011;40985;53.180;5.800;2023-02-12T01:59:30;112.63;;;12.40;;
55090;SDS011;40985;53.180;5.800;2023-02-12T02:01:58;69.22;;;10.70;;
55090;SDS011;40985;53.180;5.800;2023-02-12T02:04:28;68.00;;;11.73;;
55090;SDS011;40985;53.180;5.800;2023-02-12T02:06:58;135.60;;;13.52;;
55090;SDS011;40985;53.180;5.800;2023-02-12T02:09:27;135.70;;;14.20;;
55090;SDS011;40985;53.180;5.800;2023-02-12T02:11:55;134.70;;;12.98;;
55090;SDS011;40985;53.180;5.800;2023-02-12T02:14:39;115.63;;;12.85;;
55090;SDS011;40985;53.180;5.800;2023-02-12T02:31:19;81.50;;;11.65;;
55090;SDS011;40985;53.180;5.800;2023-02-12T02:34:10;106.18;;;12.88;;
55090;SDS011;40985;53.180;5.800;2023-02-12T02:36:50;101.07;;;11.27;;
55090;SDS011;40985;53.180;5.800;2023-02-12T02:39:41;123.00;;;13.48;;
55090;SDS011;40985;53.180;5.800;2023-02-12T02:42:32;72.25;;;10.25;;
55090;SDS011;40985;53.180;5.800;2023-02-12T02:45:06;79.25;;;11.45;;
55090;SDS011;40985;53.180;5.800;2023-02-12T02:50:34;114.10;;;13.60;;
55090;SDS011;40985;53.180;5.800;2023-02-12T02:53:09;118.30;;;13.68;;
55090;SDS011;40985;53.180;5.800;2023-02-12T02:55:45;125.32;;;14.70;;
55090;SDS011;40985;53.180;5.800;2023-02-12T02:58:24;124.00;;;13.77;;
55090;SDS011;40985;53.180;5.800;2023-02-12T03:04:04;117.70;;;14.15;;
55090;SDS011;40985;53.180;5.800;2023-02-12T03:06:43;97.05;;;14.05;;
55090;SDS011;40985;53.180;5.800;2023-02-12T03:09:16;145.32;;;16.20;;
55090;SDS011;40985;53.180;5.800;2023-02-12T03:11:46;162.68;;;16.85;;
55090;SDS011;40985;53.180;5.800;2023-02-12T03:14:21;172.77;;;15.75;;
55090;SDS011;40985;53.180;5.800;2023-02-12T03:16:53;153.10;;;15.57;;
55090;SDS011;40985;53.180;5.800;2023-02-12T03:19:24;171.73;;;16.73;;
55090;SDS011;40985;53.180;5.800;2023-02-12T03:22:05;169.73;;;16.02;;
55090;SDS011;40985;53.180;5.800;2023-02-12T03:24:35;140.80;;;14.43;;
55090;SDS011;40985;53.180;5.800;2023-02-12T03:27:08;133.23;;;15.87;;
55090;SDS011;40985;53.180;5.800;2023-02-12T03:29:42;142.50;;;14.18;;
55090;SDS011;40985;53.180;5.800;2023-02-12T03:32:26;162.50;;;16.05;;
55090;SDS011;40985;53.180;5.800;2023-02-12T03:35:11;173.10;;;16.92;;
55090;SDS011;40985;53.180;5.800;2023-02-12T03:37:56;151.23;;;17.27;;
55090;SDS011;40985;53.180;5.800;2023-02-12T03:40:33;179.93;;;16.00;;
55090;SDS011;40985;53.180;5.800;2023-02-12T03:43:14;101.38;;;15.52;;
55090;SDS011;40985;53.180;5.800;2023-02-12T03:48:28;147.02;;;16.02;;
55090;SDS011;40985;53.180;5.800;2023-02-12T03:51:02;138.90;;;16.50;;
55090;SDS011;40985;53.180;5.800;2023-02-12T03:53:28;108.65;;;13.15;;
55090;SDS011;40985;53.180;5.800;2023-02-12T03:55:56;118.30;;;14.95;;
55090;SDS011;40985;53.180;5.800;2023-02-12T03:58:28;132.88;;;14.05;;
55090;SDS011;40985;53.180;5.800;2023-02-12T04:00:58;96.55;;;12.18;;
55090;SDS011;40985;53.180;5.800;2023-02-12T04:03:25;136.85;;;15.40;;
55090;SDS011;40985;53.180;5.800;2023-02-12T04:05:51;140.68;;;14.98;;
55090;SDS011;40985;53.180;5.800;2023-02-12T04:08:17;98.50;;;12.77;;
55090;SDS011;40985;53.180;5.800;2023-02-12T04:13:27;124.55;;;14.52;;
55090;SDS011;40985;53.180;5.800;2023-02-12T04:18:41;145.93;;;14.75;;
55090;SDS011;40985;53.180;5.800;2023-02-12T04:26:54;187.00;;;16.85;;
55090;SDS011;40985;53.180;5.800;2023-02-12T04:30:12;145.73;;;15.40;;
55090;SDS011;40985;53.180;5.800;2023-02-12T04:32:47;131.90;;;13.73;;
55090;SDS011;40985;53.180;5.800;2023-02-12T04:35:22;115.55;;;13.85;;
55090;SDS011;40985;53.180;5.800;2023-02-12T04:40:27;103.60;;;13.52;;
55090;SDS011;40985;53.180;5.800;2023-02-12T04:42:54;79.32;;;12.07;;
55090;SDS011;40985;53.180;5.800;2023-02-12T04:45:24;101.95;;;12.32;;
55090;SDS011;40985;53.180;5.800;2023-02-12T04:47:54;67.88;;;10.75;;
55090;SDS011;40985;53.180;5.800;2023-02-12T04:50:21;79.75;;;12.00;;
55090;SDS011;40985;53.180;5.800;2023-02-12T04:52:47;89.07;;;11.45;;
55090;SDS011;40985;53.180;5.800;2023-02-12T04:55:13;90.22;;;11.20;;
55090;SDS011;40985;53.180;5.800;2023-02-12T04:57:39;81.10;;;10.82;;
55090;SDS011;40985;53.180;5.800;2023-02-12T05:00:05;93.05;;;13.30;;
55090;SDS011;40985;53.180;5.800;2023-02-12T05:02:32;95.28;;;11.15;;
55090;SDS011;40985;53.180;5.800;2023-02-12T05:04:58;83.53;;;10.73;;
55090;SDS011;40985;53.180;5.800;2023-02-12T05:07:24;122.63;;;13.05;;
55090;SDS011;40985;53.180;5.800;2023-02-12T05:09:49;120.53;;;14.00;;
55090;SDS011;40985;53.180;5.800;2023-02-12T05:12:15;108.28;;;12.65;;
55090;SDS011;40985;53.180;5.800;2023-02-12T05:14:41;94.78;;;11.18;;
55090;SDS011;40985;53.180;5.800;2023-02-12T05:17:06;132.93;;;13.15;;
55090;SDS011;40985;53.180;5.800;2023-02-12T05:19:32;159.90;;;15.30;;
55090;SDS011;40985;53.180;5.800;2023-02-12T05:21:58;157.45;;;16.08;;
55090;SDS011;40985;53.180;5.800;2023-02-12T05:24:23;119.55;;;13.93;;
55090;SDS011;40985;53.180;5.800;2023-02-12T05:26:50;184.88;;;16.52;;
55090;SDS011;40985;53.180;5.800;2023-02-12T05:29:15;114.40;;;13.52;;
55090;SDS011;40985;53.180;5.800;2023-02-12T05:31:41;148.18;;;15.88;;
55090;SDS011;40985;53.180;5.800;2023-02-12T05:34:08;108.53;;;13.00;;
55090;SDS011;40985;53.180;5.800;2023-02-12T05:36:36;86.38;;;11.98;;
55090;SDS011;40985;53.180;5.800;2023-02-12T05:39:02;115.82;;;15.38;;
55090;SDS011;40985;53.180;5.800;2023-02-12T05:41:28;88.68;;;11.75;;
55090;SDS011;40985;53.180;5.800;2023-02-12T05:43:58;80.10;;;11.32;;
55090;SDS011;40985;53.180;5.800;2023-02-12T05:46:24;57.42;;;12.45;;
55090;SDS011;40985;53.180;5.800;2023-02-12T05:48:50;65.72;;;12.52;;
55090;SDS011;40985;53.180;5.800;2023-02-12T05:51:17;55.05;;;12.60;;
55090;SDS011;40985;53.180;5.800;2023-02-12T05:53:45;61.47;;;13.95;;
55090;SDS011;40985;53.180;5.800;2023-02-12T05:58:41;37.60;;;13.35;;
55090;SDS011;40985;53.180;5.800;2023-02-12T06:01:17;46.08;;;14.35;;
55090;SDS011;40985;53.180;5.800;2023-02-12T06:03:45;52.42;;;14.35;;
55090;SDS011;40985;53.180;5.800;2023-02-12T06:06:11;43.00;;;13.05;;
55090;SDS011;40985;53.180;5.800;2023-02-12T06:08:37;35.75;;;12.95;;
55090;SDS011;40985;53.180;5.800;2023-02-12T06:11:04;38.95;;;14.02;;
55090;SDS011;40985;53.180;5.800;2023-02-12T06:13:31;36.13;;;13.90;;
55090;SDS011;40985;53.180;5.800;2023-02-12T06:15:57;43.72;;;14.07;;
55090;SDS011;40985;53.180;5.800;2023-02-12T06:18:24;41.83;;;14.50;;
55090;SDS011;40985;53.180;5.800;2023-02-12T06:20:50;70.40;;;16.20;;
55090;SDS011;40985;53.180;5.800;2023-02-12T06:23:18;52.05;;;15.70;;
55090;SDS011;40985;53.180;5.800;2023-02-12T06:25:48;46.95;;;15.23;;
55090;SDS011;40985;53.180;5.800;2023-02-12T06:28:14;36.47;;;13.82;;
55090;SDS011;40985;53.180;5.800;2023-02-12T06:30:40;50.30;;;15.65;;
55090;SDS011;40985;53.180;5.800;2023-02-12T06:33:05;45.60;;;15.13;;
55090;SDS011;40985;53.180;5.800;2023-02-12T06:35:33;52.10;;;16.35;;
55090;SDS011;40985;53.180;5.800;2023-02-12T06:38:00;56.25;;;17.02;;
55090;SDS011;40985;53.180;5.800;2023-02-12T06:40:25;48.00;;;16.85;;
55090;SDS011;40985;53.180;5.800;2023-02-12T06:42:51;50.08;;;16.73;;
55090;SDS011;40985;53.180;5.800;2023-02-12T06:45:17;50.10;;;16.85;;
55090;SDS011;40985;53.180;5.800;2023-02-12T06:47:42;56.20;;;17.27;;
55090;SDS011;40985;53.180;5.800;2023-02-12T06:50:08;54.50;;;16.75;;
55090;SDS011;40985;53.180;5.800;2023-02-12T06:52:34;51.45;;;17.90;;
55090;SDS011;40985;53.180;5.800;2023-02-12T06:55:00;47.67;;;16.33;;
55090;SDS011;40985;53.180;5.800;2023-02-12T06:57:26;51.38;;;17.13;;
55090;SDS011;40985;53.180;5.800;2023-02-12T06:59:53;46.78;;;17.33;;
55090;SDS011;40985;53.180;5.800;2023-02-12T07:02:19;50.15;;;17.02;;
55090;SDS011;40985;53.180;5.800;2023-02-12T07:04:44;54.25;;;16.95;;
55090;SDS011;40985;53.180;5.800;2023-02-12T07:07:10;46.33;;;16.73;;
55090;SDS011;40985;53.180;5.800;2023-02-12T07:09:36;53.72;;;16.98;;
55090;SDS011;40985;53.180;5.800;2023-02-12T07:12:02;48.92;;;16.75;;
55090;SDS011;40985;53.180;5.800;2023-02-12T07:14:28;56.80;;;17.42;;
55090;SDS011;40985;53.180;5.800;2023-02-12T07:16:54;56.20;;;18.25;;
55090;SDS011;40985;53.180;5.800;2023-02-12T07:19:20;52.35;;;18.75;;
55090;SDS011;40985;53.180;5.800;2023-02-12T07:21:46;53.15;;;17.60;;
55090;SDS011;40985;53.180;5.800;2023-02-12T07:24:12;52.35;;;17.70;;
55090;SDS011;40985;53.180;5.800;2023-02-12T07:26:38;71.10;;;21.70;;
55090;SDS011;40985;53.180;5.800;2023-02-12T07:29:05;63.80;;;27.15;;
55090;SDS011;40985;53.180;5.800;2023-02-12T07:31:31;82.05;;;31.70;;
55090;SDS011;40985;53.180;5.800;2023-02-12T07:33:58;71.07;;;27.00;;
55090;SDS011;40985;53.180;5.800;2023-02-12T07:36:26;66.72;;;23.88;;
55090;SDS011;40985;53.180;5.800;2023-02-12T07:38:54;64.88;;;23.10;;
55090;SDS011;40985;53.180;5.800;2023-02-12T07:41:21;75.32;;;24.80;;
55090;SDS011;40985;53.180;5.800;2023-02-12T07:43:52;88.03;;;31.20;;
55090;SDS011;40985;53.180;5.800;2023-02-12T07:46:21;69.70;;;23.02;;
55090;SDS011;40985;53.180;5.800;2023-02-12T07:48:50;72.78;;;22.77;;
55090;SDS011;40985;53.180;5.800;2023-02-12T07:51:17;65.45;;;21.23;;
55090;SDS011;40985;53.180;5.800;2023-02-12T07:53:43;80.07;;;24.23;;
55090;SDS011;40985;53.180;5.800;2023-02-12T07:58:45;64.60;;;23.25;;
55090;SDS011;40985;53.180;5.800;2023-02-12T08:01:22;73.80;;;24.90;;
55090;SDS011;40985;53.180;5.800;2023-02-12T08:03:51;70.28;;;24.23;;
55090;SDS011;40985;53.180;5.800;2023-02-12T08:06:21;72.75;;;25.25;;
55090;SDS011;40985;53.180;5.800;2023-02-12T08:08:55;69.88;;;23.45;;
55090;SDS011;40985;53.180;5.800;2023-02-12T08:11:23;73.05;;;24.13;;
55090;SDS011;40985;53.180;5.800;2023-02-12T08:13:49;69.32;;;24.00;;
55090;SDS011;40985;53.180;5.800;2023-02-12T08:16:19;73.68;;;26.10;;
55090;SDS011;40985;53.180;5.800;2023-02-12T08:18:46;76.25;;;25.67;;
55090;SDS011;40985;53.180;5.800;2023-02-12T08:21:13;79.38;;;28.42;;
55090;SDS011;40985;53.180;5.800;2023-02-12T08:23:42;83.38;;;29.55;;
55090;SDS011;40985;53.180;5.800;2023-02-12T08:28:39;83.72;;;27.95;;
55090;SDS011;40985;53.180;5.800;2023-02-12T08:31:08;85.70;;;28.77;;
55090;SDS011;40985;53.180;5.800;2023-02-12T08:33:36;88.43;;;29.02;;
55090;SDS011;40985;53.180;5.800;2023-02-12T08:36:03;91.07;;;30.60;;
55090;SDS011;40985;53.180;5.800;2023-02-12T08:38:31;90.40;;;28.20;;
55090;SDS011;40985;53.180;5.800;2023-02-12T08:43:56;91.38;;;30.35;;
55090;SDS011;40985;53.180;5.800;2023-02-12T08:46:25;90.55;;;30.13;;
55090;SDS011;40985;53.180;5.800;2023-02-12T08:48:53;93.78;;;30.20;;
55090;SDS011;40985;53.180;5.800;2023-02-12T08:51:25;92.60;;;30.45;;
55090;SDS011;40985;53.180;5.800;2023-02-12T08:53:54;100.93;;;31.35;;
55090;SDS011;40985;53.180;5.800;2023-02-12T08:56:21;96.53;;;30.92;;
55090;SDS011;40985;53.180;5.800;2023-02-12T08:58:48;94.80;;;30.50;;
55090;SDS011;40985;53.180;5.800;2023-02-12T09:01:18;92.03;;;31.23;;
55090;SDS011;40985;53.180;5.800;2023-02-12T09:03:46;86.13;;;32.05;;
55090;SDS011;40985;53.180;5.800;2023-02-12T09:06:13;91.20;;;33.13;;
55090;SDS011;40985;53.180;5.800;2023-02-12T09:08:40;89.15;;;32.17;;
55090;SDS011;40985;53.180;5.800;2023-02-12T09:11:08;83.80;;;31.00;;
55090;SDS011;40985;53.180;5.800;2023-02-12T09:13:36;80.70;;;29.63;;
55090;SDS011;40985;53.180;5.800;2023-02-12T09:16:04;87.15;;;30.45;;
55090;SDS011;40985;53.180;5.800;2023-02-12T09:18:30;86.75;;;30.90;;
55090;SDS011;40985;53.180;5.800;2023-02-12T09:20:59;82.25;;;30.80;;
55090;SDS011;40985;53.180;5.800;2023-02-12T09:23:36;81.13;;;28.77;;
55090;SDS011;40985;53.180;5.800;2023-02-12T09:26:03;79.00;;;29.05;;
55090;SDS011;40985;53.180;5.800;2023-02-12T09:28:30;76.30;;;28.40;;
55090;SDS011;40985;53.180;5.800;2023-02-12T09:30:55;81.65;;;29.10;;
55090;SDS011;40985;53.180;5.800;2023-02-12T09:33:21;69.53;;;28.70;;
55090;SDS011;40985;53.180;5.800;2023-02-12T09:35:47;75.38;;;28.52;;
55090;SDS011;40985;53.180;5.800;2023-02-12T09:38:13;69.78;;;26.83;;
55090;SDS011;40985;53.180;5.800;2023-02-12T09:43:17;66.38;;;26.35;;
55090;SDS011;40985;53.180;5.800;2023-02-12T09:46:10;68.68;;;27.02;;
55090;SDS011;40985;53.180;5.800;2023-02-12T09:48:49;58.90;;;25.50;;
55090;SDS011;40985;53.180;5.800;2023-02-12T09:51:35;56.97;;;24.38;;
55090;SDS011;40985;53.180;5.800;2023-02-12T09:54:14;54.90;;;22.75;;
55090;SDS011;40985;53.180;5.800;2023-02-12T09:56:44;50.55;;;24.50;;
55090;SDS011;40985;53.180;5.800;2023-02-12T09:59:35;50.97;;;22.85;;
55090;SDS011;40985;53.180;5.800;2023-02-12T10:02:14;46.33;;;22.27;;
55090;SDS011;40985;53.180;5.800;2023-02-12T10:04:42;51.72;;;24.08;;
55090;SDS011;40985;53.180;5.800;2023-02-12T10:09:46;46.60;;;22.17;;
55090;SDS011;40985;53.180;5.800;2023-02-12T10:17:42;37.90;;;19.63;;
55090;SDS011;40985;53.180;5.800;2023-02-12T10:23:16;27.63;;;17.30;;
55090;SDS011;40985;53.180;5.800;2023-02-12T10:28:32;23.00;;;15.95;;
55090;SDS011;40985;53.180;5.800;2023-02-12T10:31:04;25.38;;;15.75;;
55090;SDS011;40985;53.180;5.800;2023-02-12T10:36:42;24.90;;;15.35;;
55090;SDS011;40985;53.180;5.800;2023-02-12T10:41:36;24.35;;;16.42;;
55090;SDS011;40985;53.180;5.800;2023-02-12T10:44:23;26.95;;;17.23;;
55090;SDS011;40985;53.180;5.800;2023-02-12T10:46:49;22.90;;;16.27;;
55090;SDS011;40985;53.180;5.800;2023-02-12T10:49:15;27.00;;;17.50;;
55090;SDS011;40985;53.180;5.800;2023-02-12T10:54:40;27.88;;;18.45;;
55090;SDS011;40985;53.180;5.800;2023-02-12T10:57:25;25.15;;;17.58;;
55090;SDS011;40985;53.180;5.800;2023-02-12T10:59:55;36.28;;;19.58;;
55090;SDS011;40985;53.180;5.800;2023-02-12T11:02:37;34.55;;;19.42;;
55090;SDS011;40985;53.180;5.800;2023-02-12T11:05:21;29.23;;;19.33;;
55090;SDS011;40985;53.180;5.800;2023-02-12T11:07:50;31.00;;;20.23;;
55090;SDS011;40985;53.180;5.800;2023-02-12T11:10:58;33.47;;;20.50;;
55090;SDS011;40985;53.180;5.800;2023-02-12T11:13:05;33.88;;;18.92;;
55090;SDS011;40985;53.180;5.800;2023-02-12T11:15:50;28.17;;;18.63;;
55090;SDS011;40985;53.180;5.800;2023-02-12T11:18:24;29.83;;;18.85;;
55090;SDS011;40985;53.180;5.800;2023-02-12T11:21:06;26.50;;;17.58;;
55090;SDS011;40985;53.180;5.800;2023-02-12T11:23:35;26.15;;;17.15;;
55090;SDS011;40985;53.180;5.800;2023-02-12T11:28:54;25.05;;;17.25;;
55090;SDS011;40985;53.180;5.800;2023-02-12T11:31:28;27.50;;;17.67;;
55090;SDS011;40985;53.180;5.800;2023-02-12T11:36:45;25.10;;;16.50;;
55090;SDS011;40985;53.180;5.800;2023-02-12T11:39:23;24.63;;;16.20;;
55090;SDS011;40985;53.180;5.800;2023-02-12T11:42:05;24.23;;;15.63;;
55090;SDS011;40985;53.180;5.800;2023-02-12T11:44:51;21.30;;;14.93;;
55090;SDS011;40985;53.180;5.800;2023-02-12T11:47:23;21.60;;;15.18;;
55090;SDS011;40985;53.180;5.800;2023-02-12T11:52:46;20.77;;;15.77;;
55090;SDS011;40985;53.180;5.800;2023-02-12T11:55:20;22.38;;;15.32;;
55090;SDS011;40985;53.180;5.800;2023-02-12T11:57:49;25.92;;;16.23;;
55090;SDS011;40985;53.180;5.800;2023-02-12T12:00:22;21.50;;;15.35;;
55090;SDS011;40985;53.180;5.800;2023-02-12T12:02:54;23.05;;;15.00;;
55090;SDS011;40985;53.180;5.800;2023-02-12T12:07:56;24.40;;;15.57;;
55090;SDS011;40985;53.180;5.800;2023-02-12T12:10:37;23.60;;;15.75;;
55090;SDS011;40985;53.180;5.800;2023-02-12T12:13:16;27.17;;;16.63;;
55090;SDS011;40985;53.180;5.800;2023-02-12T12:15:49;21.15;;;15.10;;
55090;SDS011;40985;53.180;5.800;2023-02-12T12:18:46;24.05;;;16.17;;
55090;SDS011;40985;53.180;5.800;2023-02-12T12:21:37;25.02;;;16.80;;
55090;SDS011;40985;53.180;5.800;2023-02-12T12:26:39;28.08;;;16.80;;
55090;SDS011;40985;53.180;5.800;2023-02-12T12:29:14;26.23;;;17.17;;
55090;SDS011;40985;53.180;5.800;2023-02-12T12:32:04;27.48;;;17.58;;
55090;SDS011;40985;53.180;5.800;2023-02-12T12:34:31;29.60;;;17.15;;
55090;SDS011;40985;53.180;5.800;2023-02-12T12:54:12;28.75;;;18.65;;
55090;SDS011;40985;53.180;5.800;2023-02-12T13:06:04;35.25;;;20.17;;
55090;SDS011;40985;53.180;5.800;2023-02-12T13:08:31;28.48;;;18.70;;
55090;SDS011;40985;53.180;5.800;2023-02-12T13:13:45;28.02;;;18.58;;
55090;SDS011;40985;53.180;5.800;2023-02-12T13:16:28;30.42;;;18.80;;
55090;SDS011;40985;53.180;5.800;2023-02-12T13:27:00;28.85;;;17.63;;
55090;SDS011;40985;53.180;5.800;2023-02-12T13:29:57;24.40;;;17.92;;
55090;SDS011;40985;53.180;5.800;2023-02-12T13:32:31;22.92;;;17.05;;
55090;SDS011;40985;53.180;5.800;2023-02-12T13:35:01;27.00;;;17.65;;
55090;SDS011;40985;53.180;5.800;2023-02-12T13:37:42;25.27;;;17.02;;
55090;SDS011;40985;53.180;5.800;2023-02-12T13:40:23;20.52;;;15.15;;
55090;SDS011;40985;53.180;5.800;2023-02-12T13:42:53;19.73;;;15.95;;
55090;SDS011;40985;53.180;5.800;2023-02-12T13:45:34;27.02;;;17.88;;
55090;SDS011;40985;53.180;5.800;2023-02-12T13:48:42;22.23;;;16.63;;
55090;SDS011;40985;53.180;5.800;2023-02-12T13:57:08;22.83;;;15.57;;
55090;SDS011;40985;53.180;5.800;2023-02-12T13:59:41;23.27;;;15.68;;
55090;SDS011;40985;53.180;5.800;2023-02-12T14:07:18;19.83;;;14.73;;
55090;SDS011;40985;53.180;5.800;2023-02-12T14:17:54;19.75;;;14.55;;
55090;SDS011;40985;53.180;5.800;2023-02-12T14:20:32;22.10;;;15.02;;
55090;SDS011;40985;53.180;5.800;2023-02-12T14:23:12;19.73;;;14.75;;
55090;SDS011;40985;53.180;5.800;2023-02-12T14:26:04;20.42;;;14.38;;
55090;SDS011;40985;53.180;5.800;2023-02-12T14:33:41;20.85;;;14.45;;
55090;SDS011;40985;53.180;5.800;2023-02-12T14:36:12;25.85;;;15.45;;
55090;SDS011;40985;53.180;5.800;2023-02-12T14:46:52;20.17;;;14.63;;
55090;SDS011;40985;53.180;5.800;2023-02-12T14:49:23;19.13;;;14.18;;
55090;SDS011;40985;53.180;5.800;2023-02-12T14:52:00;18.73;;;15.30;;
55090;SDS011;40985;53.180;5.800;2023-02-12T14:57:08;18.75;;;14.57;;
55090;SDS011;40985;53.180;5.800;2023-02-12T14:59:46;20.50;;;14.48;;
55090;SDS011;40985;53.180;5.800;2023-02-12T15:02:20;19.67;;;14.63;;
55090;SDS011;40985;53.180;5.800;2023-02-12T15:04:49;18.70;;;14.77;;
55090;SDS011;40985;53.180;5.800;2023-02-12T15:07:51;25.95;;;15.57;;
55090;SDS011;40985;53.180;5.800;2023-02-12T15:10:31;20.30;;;16.83;;
55090;SDS011;40985;53.180;5.800;2023-02-12T15:16:06;23.83;;;16.92;;
55090;SDS011;40985;53.180;5.800;2023-02-12T15:21:30;29.88;;;20.65;;
55090;SDS011;40985;53.180;5.800;2023-02-12T15:24:02;29.65;;;19.98;;
55090;SDS011;40985;53.180;5.800;2023-02-12T15:26:33;23.90;;;18.42;;
55090;SDS011;40985;53.180;5.800;2023-02-12T15:29:05;18.63;;;16.10;;
55090;SDS011;40985;53.180;5.800;2023-02-12T15:31:40;17.60;;;14.63;;
55090;SDS011;40985;53.180;5.800;2023-02-12T15:34:06;19.63;;;16.00;;
55090;SDS011;40985;53.180;5.800;2023-02-12T15:36:39;20.63;;;15.50;;
55090;SDS011;40985;53.180;5.800;2023-02-12T15:39:13;27.00;;;19.70;;
55090;SDS011;40985;53.180;5.800;2023-02-12T15:41:45;20.02;;;15.80;;
55090;SDS011;40985;53.180;5.800;2023-02-12T15:49:32;18.77;;;15.60;;
55090;SDS011;40985;53.180;5.800;2023-02-12T15:52:01;19.15;;;16.02;;
55090;SDS011;40985;53.180;5.800;2023-02-12T15:54:30;20.63;;;15.35;;
55090;SDS011;40985;53.180;5.800;2023-02-12T15:56:56;20.83;;;15.93;;
55090;SDS011;40985;53.180;5.800;2023-02-12T15:59:23;20.33;;;14.98;;
55090;SDS011;40985;53.180;5.800;2023-02-12T16:01:51;18.35;;;15.82;;
55090;SDS011;40985;53.180;5.800;2023-02-12T16:04:19;20.23;;;16.77;;
55090;SDS011;40985;53.180;5.800;2023-02-12T16:06:45;16.85;;;15.05;;
55090;SDS011;40985;53.180;5.800;2023-02-12T16:09:14;18.52;;;14.68;;
55090;SDS011;40985;53.180;5.800;2023-02-12T16:11:43;17.80;;;14.30;;
55090;SDS011;40985;53.180;5.800;2023-02-12T16:14:24;17.05;;;14.32;;
55090;SDS011;40985;53.180;5.800;2023-02-12T16:16:53;14.70;;;12.90;;
55090;SDS011;40985;53.180;5.800;2023-02-12T16:19:25;17.25;;;13.50;;
55090;SDS011;40985;53.180;5.800;2023-02-12T16:24:38;17.77;;;14.57;;
55090;SDS011;40985;53.180;5.800;2023-02-12T16:27:16;18.25;;;15.60;;
55090;SDS011;40985;53.180;5.800;2023-02-12T16:29:45;18.13;;;14.48;;
55090;SDS011;40985;53.180;5.800;2023-02-12T16:32:29;17.38;;;15.07;;
55090;SDS011;40985;53.180;5.800;2023-02-12T16:35:21;17.23;;;15.40;;
55090;SDS011;40985;53.180;5.800;2023-02-12T16:37:49;18.10;;;15.30;;
55090;SDS011;40985;53.180;5.800;2023-02-12T16:40:27;20.30;;;14.55;;
55090;SDS011;40985;53.180;5.800;2023-02-12T16:42:56;16.35;;;14.10;;
55090;SDS011;40985;53.180;5.800;2023-02-12T16:45:42;18.23;;;14.23;;
55090;SDS011;40985;53.180;5.800;2023-02-12T16:50:42;16.38;;;14.55;;
55090;SDS011;40985;53.180;5.800;2023-02-12T16:55:50;16.63;;;14.82;;
55090;SDS011;40985;53.180;5.800;2023-02-12T16:58:16;19.02;;;15.20;;
55090;SDS011;40985;53.180;5.800;2023-02-12T17:00:41;22.33;;;16.58;;
55090;SDS011;40985;53.180;5.800;2023-02-12T17:03:14;17.58;;;15.55;;
55090;SDS011;40985;53.180;5.800;2023-02-12T17:05:40;24.23;;;17.38;;
55090;SDS011;40985;53.180;5.800;2023-02-12T17:08:15;19.40;;;15.98;;
55090;SDS011;40985;53.180;5.800;2023-02-12T17:10:42;23.92;;;17.25;;
55090;SDS011;40985;53.180;5.800;2023-02-12T17:13:12;19.92;;;16.13;;
55090;SDS011;40985;53.180;5.800;2023-02-12T17:15:59;25.13;;;16.63;;
55090;SDS011;40985;53.180;5.800;2023-02-12T17:18:27;22.23;;;15.82;;
55090;SDS011;40985;53.180;5.800;2023-02-12T17:20:58;19.15;;;16.02;;
55090;SDS011;40985;53.180;5.800;2023-02-12T17:23:27;22.13;;;16.95;;
55090;SDS011;40985;53.180;5.800;2023-02-12T17:25:53;18.80;;;15.73;;
55090;SDS011;40985;53.180;5.800;2023-02-12T17:28:19;16.85;;;14.45;;
55090;SDS011;40985;53.180;5.800;2023-02-12T17:30:46;22.00;;;15.38;;
55090;SDS011;40985;53.180;5.800;2023-02-12T17:33:12;20.73;;;15.40;;
55090;SDS011;40985;53.180;5.800;2023-02-12T17:35:38;20.63;;;17.20;;
55090;SDS011;40985;53.180;5.800;2023-02-12T17:38:05;19.98;;;16.55;;
55090;SDS011;40985;53.180;5.800;2023-02-12T17:40:31;24.42;;;18.67;;